KCPS/CPS METAR and TAF weather

Enter ICAO airport designator
Station Type Date Time Source
KCPS METAR 2019/12/08 18:53 UTC NOAA

KCPS 081853Z 19009G18KT 150V210 10SM CLR 13/04 A2992 RMK AO2 SLP132 T01330039


Station Type Date Time Source
KCPS Decoded METAR 2019/12/08 18:53 UTC NOAA

ST LOUIS DOWNTOWN AIRPORT, IL, United States (KCPS) 38-34N 090-09W 126M
Dec 08, 2019 - 01:53 PM EST / 2019.12.08 1853 UTC
Wind: from the S (190 degrees) at 10 MPH (9 KT) gusting to 21 MPH (18 KT) (direction variable):0
Visibility: 10 mile(s):0
Sky conditions: clear
Temperature: 55.9 F (13.3 C)
Dew Point: 39.0 F (3.9 C)
Relative Humidity: 52%
Pressure (altimeter): 29.92 in. Hg (1013 hPa)
ob: KCPS 081853Z 19009G18KT 150V210 10SM CLR 13/04 A2992 RMK AO2 SLP132 T01330039
cycle: 19

Station Type Date Time Source
KCPS TAF 2019/12/08 18:33 UTC NOAA

TAF KCPS 081731Z 0818/0918 19010KT P6SM BKN250
FM090400 18009KT P6SM VCSH OVC025
FM090800 19008KT 6SM -SHRA OVC015
FM091500 22008KT P6SM SCT008 OVC012

Example: see airport list